• Join FlightAware (Why Join?)
  • Login
  • US Flag 
02:38PM EDT


 

Airport Tracker/Info


-or-


 

Live Flight TrackerFlight Track Log ✈ FDX1570 ✈ 09-May-2013 ✈ KMEM - KALB

Flight Track Log - Related Links

Times and Time Zones

All times are in EDT time to prevent confusion due to time zone crossing. See the FDX1570 flight status page for this flight to view local times or setup timezone preferences in your user account.

Time Position Orientation Groundspeed Altitude Reporting Facility
EDT Latitude Longitude Course Direction KTS MPH feet Rate Location/Type
04:31AM 35.0167 -89.9667 165° South 170 196 1,500  Level KMEM
04:32AM 34.9667 -89.9500 165° South 222 255 3,400 2,580 Climbing KMEM
04:34AM 34.9167 -89.8833 132° Southeast 289 333 7,000 2,760 Climbing KMEM
04:35AM 34.9911 -89.7133 62° Northeast 357 411 11,600 2,160 Climbing Memphis Center
04:36AM 35.0364 -89.6014 64° Northeast 363 418 13,300 2,400 Climbing Memphis Center
04:37AM 35.0897 -89.4817 61° Northeast 385 443 16,400 2,700 Climbing Memphis Center
04:38AM 35.1450 -89.3564 62° Northeast 404 465 18,800 2,100 Climbing Memphis Center
04:39AM 35.1964 -89.2392 62° Northeast 424 488 20,600 1,920 Climbing Memphis Center
04:40AM 35.2597 -89.1008 61° Northeast 444 511 22,700 2,040 Climbing Memphis Center
04:41AM 35.3292 -88.9650 58° Northeast 461 531 24,700 1,860 Climbing Memphis Center
04:47AM 35.8020 -88.1680 58° Northeast 468 539 35,800 1,800 Climbing FlightAware
04:48AM 35.8600 -88.0710 54° Northeast 469 540 36,700 840 Climbing FlightAware
04:49AM 35.9120 -87.9830 54° Northeast 463 533 37,000 180 Climbing FlightAware
04:49AM 35.9680 -87.8900 53° Northeast 464 534 37,000  Level FlightAware
04:50AM 36.0180 -87.8060 54° Northeast 467 537 37,000  Level FlightAware
04:51AM 36.0780 -87.7050 54° Northeast 467 537 37,000  Level FlightAware
04:52AM 36.1290 -87.6180 54° Northeast 468 539 37,000  Level FlightAware
04:52AM 36.1800 -87.5320 54° Northeast 469 540 37,000  Level FlightAware
04:53AM 36.2350 -87.4380 54° Northeast 469 540 37,000  Level FlightAware
04:54AM 36.2860 -87.3510 54° Northeast 467 537 37,000  Level FlightAware
04:54AM 36.3450 -87.2500 54° Northeast 467 537 37,000  Level FlightAware
04:55AM 36.3960 -87.1650 53° Northeast 467 537 37,000  Level FlightAware
04:56AM 36.4460 -87.0780 54° Northeast 467 537 37,000  Level FlightAware
04:56AM 36.5020 -86.9800 55° Northeast 467 537 37,000  Level FlightAware
04:57AM 36.5530 -86.8930 54° Northeast 465 535 37,000  Level FlightAware
04:58AM 36.6020 -86.8080 54° Northeast 464 534 37,000  Level FlightAware
04:58AM 36.6561 -86.7146 54° Northeast 465 535 37,000  Level FlightAware ADS-B
04:59AM 36.6969 -86.6428 55° Northeast 464 534 37,000  Level FlightAware ADS-B
05:00AM 36.7352 -86.5755 55° Northeast 463 533 37,000  Level FlightAware ADS-B
05:00AM 36.7735 -86.5084 55° Northeast 461 531 37,000  Level FlightAware ADS-B
05:01AM 36.8106 -86.4433 55° Northeast 462 532 37,000  Level FlightAware ADS-B
05:01AM 36.8556 -86.3650 54° Northeast 462 532 37,000  Level FlightAware ADS-B
05:02AM 36.9054 -86.2779 54° Northeast 463 533 37,000  Level FlightAware ADS-B
05:02AM 36.9473 -86.2037 55° Northeast 463 533 37,000  Level FlightAware ADS-B
05:03AM 37.0260 -86.0640 55° Northeast 463 533 37,000  Level FlightAware
05:04AM 37.0750 -85.9780 54° Northeast 465 535 37,000  Level FlightAware
05:05AM 37.1300 -85.8780 55° Northeast 467 537 37,000  Level FlightAware
05:05AM 37.1630 -85.8210 54° Northeast 467 537 37,000  Level FlightAware
05:06AM 37.2280 -85.7030 55° Northeast 467 537 37,000  Level FlightAware
05:07AM 37.2840 -85.6030 55° Northeast 467 537 37,000  Level FlightAware
05:08AM 37.3250 -85.5290 55° Northeast 468 539 37,000  Level FlightAware
05:08AM 37.3840 -85.4220 55° Northeast 467 537 37,000  Level FlightAware
05:09AM 37.4160 -85.3643 55° Northeast 469 540 37,000  Level FlightAware ADS-B
05:09AM 37.4542 -85.2946 55° Northeast 469 540 37,000  Level FlightAware ADS-B
05:10AM 37.4921 -85.2273 55° Northeast 470 541 37,000  Level FlightAware ADS-B
05:10AM 37.5294 -85.1574 56° Northeast 472 543 37,000  Level FlightAware ADS-B
05:11AM 37.5673 -85.0894 55° Northeast 473 544 37,000  Level FlightAware ADS-B
05:11AM 37.6047 -85.0212 55° Northeast 474 545 37,000  Level FlightAware ADS-B
05:12AM 37.6500 -84.9390 55° Northeast 474 545 37,000  Level FlightAware
05:12AM 37.6652 -84.9095 57° Northeast 475 547 37,000  Level FlightAware ADS-B
05:13AM 37.7500 -84.7540 55° Northeast 477 549 37,000  Level FlightAware
05:14AM 37.8070 -84.6480 56° Northeast 476 548 37,000  Level FlightAware
05:15AM 37.8490 -84.5720 55° Northeast 476 548 37,000  Level FlightAware
05:15AM 37.9100 -84.4570 56° Northeast 475 547 37,000  Level FlightAware
05:16AM 37.9600 -84.3640 56° Northeast 476 548 37,000  Level FlightAware
05:17AM 38.0090 -84.2720 56° Northeast 476 548 37,000  Level FlightAware
05:17AM 38.0670 -84.1630 56° Northeast 477 549 37,000  Level FlightAware
05:18AM 38.1280 -84.0480 56° Northeast 477 549 37,000  Level FlightAware
05:19AM 38.1810 -83.9470 56° Northeast 475 547 37,000  Level FlightAware
05:20AM 38.2320 -83.8520 56° Northeast 474 545 37,000  Level FlightAware
05:20AM 38.2740 -83.7730 56° Northeast 474 545 37,000  Level FlightAware
05:21AM 38.3150 -83.6940 57° Northeast 474 545 37,000  Level FlightAware
05:22AM 38.3570 -83.6150 56° Northeast 474 545 37,000  Level FlightAware
05:23AM 38.4090 -83.5170 56° Northeast 474 545 37,000  Level FlightAware
05:23AM 38.4510 -83.4380 56° Northeast 474 545 37,000  Level FlightAware
05:24AM 38.4920 -83.3590 56° Northeast 474 545 37,000  Level FlightAware
05:25AM 38.5340 -83.2800 56° Northeast 474 545 37,000  Level FlightAware
05:25AM 38.5760 -83.2010 56° Northeast 474 545 37,000  Level FlightAware
05:26AM 38.7000 -82.9490 58° Northeast 475 547 37,000  Level FlightAware
05:27AM 38.7460 -82.8600 56° Northeast 477 549 37,000  Level FlightAware
05:28AM 38.8020 -82.7480 57° Northeast 479 551 37,000  Level FlightAware
05:28AM 38.8400 -82.6720 57° Northeast 480 552 37,000  Level FlightAware
05:29AM 38.8910 -82.5740 56° Northeast 482 555 37,000  Level FlightAware
05:30AM 38.9460 -82.4630 57° Northeast 484 557 37,000  Level FlightAware
05:30AM 39.0000 -82.3570 57° Northeast 484 557 37,000  Level FlightAware
05:31AM 39.0560 -82.2450 57° Northeast 485 558 37,000  Level FlightAware
05:32AM 39.1050 -82.1460 57° Northeast 482 555 37,000  Level FlightAware
05:32AM 39.1530 -82.0490 57° Northeast 482 555 37,000  Level FlightAware
05:33AM 39.2010 -81.9550 57° Northeast 482 555 37,000  Level FlightAware
05:34AM 39.2530 -81.8480 58° Northeast 483 556 37,000  Level FlightAware
05:34AM 39.3000 -81.7530 57° Northeast 484 557 37,000  Level FlightAware
05:35AM 39.3570 -81.6380 57° Northeast 485 558 37,000  Level FlightAware
05:36AM 39.4100 -81.5280 58° Northeast 486 559 37,000  Level FlightAware
05:37AM 39.4530 -81.4420 57° Northeast 486 559 37,000  Level FlightAware
05:37AM 39.5060 -81.3330 58° Northeast 485 558 37,000  Level FlightAware
05:38AM 39.5600 -81.2200 58° Northeast 483 556 37,000  Level FlightAware
05:39AM 39.6080 -81.1200 58° Northeast 479 551 37,000  Level FlightAware
05:39AM 39.6610 -81.0110 58° Northeast 477 549 37,000  Level FlightAware
05:40AM 39.7060 -80.9190 58° Northeast 475 547 37,000  Level FlightAware
05:41AM 39.7520 -80.8220 58° Northeast 475 547 37,000  Level FlightAware
05:42AM 39.8060 -80.7100 58° Northeast 475 547 37,000  Level FlightAware
05:42AM 39.8500 -80.6160 59° Northeast 471 542 37,000  Level FlightAware
05:43AM 39.8970 -80.5170 58° Northeast 469 540 37,000  Level FlightAware
05:43AM 39.9310 -80.4450 58° Northeast 468 539 37,000  Level FlightAware
05:44AM 39.9800 -80.3420 58° Northeast 467 537 37,000  Level FlightAware
05:45AM 40.0270 -80.2430 58° Northeast 468 539 37,000  Level FlightAware
05:45AM 40.0690 -80.1510 59° Northeast 468 539 37,000  Level FlightAware
05:46AM 40.1230 -80.0360 58° Northeast 468 539 37,000  Level FlightAware
05:47AM 40.1690 -79.9390 58° Northeast 469 540 37,000  Level FlightAware
05:48AM 40.2150 -79.8390 59° Northeast 470 541 37,000  Level FlightAware
05:48AM 40.2640 -79.7320 59° Northeast 472 543 37,000  Level FlightAware
05:49AM 40.3080 -79.6360 59° Northeast 475 547 37,000  Level FlightAware
05:49AM 40.3420 -79.5620 59° Northeast 476 548 37,000  Level FlightAware
05:50AM 40.3890 -79.4630 58° Northeast 476 548 37,000  Level FlightAware
05:51AM 40.4340 -79.3640 59° Northeast 476 548 37,000  Level FlightAware
05:51AM 40.4770 -79.2690 59° Northeast 474 545 37,000  Level FlightAware
05:52AM 40.5280 -79.1550 59° Northeast 475 547 37,000  Level FlightAware
05:53AM 40.5720 -79.0590 59° Northeast 476 548 37,000  Level FlightAware
05:54AM 40.6170 -78.9560 60° Northeast 476 548 37,000  Level FlightAware
05:54AM 40.6550 -78.8740 59° Northeast 476 548 37,000  Level FlightAware
05:55AM 40.7090 -78.7550 59° Northeast 477 549 37,000  Level FlightAware
05:56AM 40.7590 -78.6420 60° Northeast 477 549 37,000  Level FlightAware
05:56AM 40.8030 -78.5440 59° Northeast 479 551 37,000  Level FlightAware
05:57AM 40.8460 -78.4450 60° Northeast 481 554 37,000  Level FlightAware
05:58AM 40.8980 -78.3280 60° Northeast 483 556 37,000  Level FlightAware
05:58AM 40.9430 -78.2260 60° Northeast 484 557 37,000  Level FlightAware
05:59AM 40.9940 -78.1080 60° Northeast 485 558 37,000  Level FlightAware
06:00AM 41.0390 -78.0050 60° Northeast 484 557 37,000  Level FlightAware
06:01AM 41.0860 -77.9080 57° Northeast 482 555 37,000 -540 Level FlightAware
06:01AM 41.1420 -77.8000 55° Northeast 483 556 36,300 -900 Descending FlightAware
06:02AM 41.1960 -77.7000 54° Northeast 476 548 35,800 -780 Descending FlightAware
06:03AM 41.2530 -77.5940 54° Northeast 470 541 35,200 -960 Descending FlightAware
06:03AM 41.3010 -77.5070 54° Northeast 471 542 34,500 -1,080 Descending FlightAware
06:04AM 41.3550 -77.4050 55° Northeast 471 542 33,800 -1,080 Descending FlightAware
06:05AM 41.4120 -77.2990 54° Northeast 472 543 33,000 -1,080 Descending FlightAware
06:05AM 41.4580 -77.2110 55° Northeast 474 545 32,300 -960 Descending FlightAware
06:06AM 41.5160 -77.0990 55° Northeast 466 536 31,700 -1,080 Descending FlightAware
06:07AM 41.5680 -77.0020 54° Northeast 469 540 30,800 -1,320 Descending FlightAware
06:08AM 41.6250 -76.8930 55° Northeast 469 540 29,900 -1,200 Descending FlightAware
06:08AM 41.6740 -76.7980 55° Northeast 468 539 29,100 -1,020 Descending FlightAware
06:09AM 41.7230 -76.7070 54° Northeast 473 544 28,600 -960 Descending FlightAware
06:10AM 41.7790 -76.5960 56° Northeast 473 544 27,800 -1,080 Descending FlightAware
06:10AM 41.8300 -76.4980 55° Northeast 471 542 27,100 -1,380 Descending FlightAware
06:11AM 41.8790 -76.4030 55° Northeast 478 550 26,000 -1,800 Descending FlightAware
06:12AM 41.9360 -76.2930 55° Northeast 473 544 24,600 -1,440 Descending FlightAware
06:12AM 41.9860 -76.1960 55° Northeast 454 522 24,000 -480 Descending FlightAware
06:13AM 42.0360 -76.0980 55° Northeast 451 519 24,000  Level FlightAware
06:14AM 42.0740 -76.0230 56° Northeast 451 519 24,000  Level FlightAware
06:14AM 42.1150 -75.9440 55° Northeast 451 519 24,000  Level FlightAware
06:15AM 42.1660 -75.8460 55° Northeast 451 519 24,000  Level FlightAware
06:16AM 42.2060 -75.7680 55° Northeast 451 519 24,000  Level FlightAware
06:17AM 42.2470 -75.6900 55° Northeast 451 519 24,000  Level FlightAware
06:17AM 42.2980 -75.5090 69° East 451 519 24,000  Level FlightAware
06:18AM 42.3220 -75.4130 71° East 452 520 24,000  Level FlightAware
06:18AM 42.3450 -75.3220 71° East 452 520 24,000  Level FlightAware
06:19AM 42.3680 -75.2310 71° East 452 520 24,000  Level FlightAware
06:20AM 42.3970 -75.1180 71° East 452 520 24,000  Level FlightAware
06:21AM 42.4210 -75.0270 70° East 452 520 24,000  Level FlightAware
06:21AM 42.4440 -74.9360 71° East 452 520 24,000 -10,320 Level FlightAware
06:22AM 42.4769 -74.8497 71° East 429 494 14,400 -10,200 Descending Boston Center
06:22AM 42.5153 -74.7047 70° East 387 445 11,800 -2,220 Descending Boston Center
06:23AM 42.5292 -74.6433 73° East 374 430 11,300 -660 Descending Boston Center
06:24AM 42.5450 -74.5819 71° East 362 417 11,100 -300 Descending Boston Center
06:24AM 42.5647 -74.5206 66° East 304 350 11,000 -720 Descending Boston Center
06:25AM 42.5700 -74.4672 82° East 305 351 10,400 -1,320 Descending Boston Center
06:25AM 42.5686 -74.4192 92° East 268 308 9,700 -1,320 Descending Boston Center
06:26AM 42.5694 -74.3714 89° East 282 325 9,100 -1,380 Descending Boston Center
06:26AM 42.5664 -74.3119 94° East 277 319 8,300 -1,500 Descending Boston Center
06:27AM 42.5650 -74.2556 92° East 275 316 7,600 -1,320 Descending Boston Center
06:27AM 42.5658 -74.2078 89° East 279 321 7,000 -1,200 Descending Boston Center
06:28AM 42.5644 -74.1625 92° East 275 316 6,400 -1,200 Descending Boston Center
06:28AM 42.5633 -74.1061 92° East 273 314 5,800 -1,200 Descending Boston Center
06:29AM 42.5619 -74.0497 92° East 275 316 5,200 -1,200 Descending Boston Center
06:29AM 42.5606 -74.0044 92° East 268 308 4,600 -1,020 Descending Boston Center
06:30AM 42.5633 -73.9594 85° East 270 311 4,200 -1,140 Descending Boston Center
06:30AM 42.5825 -73.9147 60° Northeast 266 306 3,500 -1,320 Descending Boston Center
06:31AM 42.6061 -73.8758 50° Northeast 242 278 2,900 -840 Descending Boston Center
06:31AM 42.6253 -73.8397 54° Northeast 215 247 2,700 -540 Descending Boston Center
06:32AM 42.6442 -73.8147 44° Northeast 230 265 2,400 -1,020 Descending Boston Center
06:32AM 42.6672 -73.8039 19° North 180 207 1,700 -1,020 Descending Boston Center
06:33AM 42.7069 -73.8047 359° North 130 150 900 -840 Descending Boston Center